Time;durP1;ratioP1;P1;durP2;ratioP2;P2;SDS_P1;SDS_P2;PMS_P1;PMS_P2;Temp;Humidity;BMP_temperature;BMP_pressure;BME280_temperature;BME280_humidity;BME280_pressure;Samples;Min_cycle;Max_cycle;Signal;HPM_P1;HPM_P2
2022/11/19 00:01:08;;;;;;;5.32;2.92;;;0.70;99.90;;;;;;5053044;28;19921;-44
2022/11/19 00:03:35;;;;;;;4.93;2.90;;;0.70;1.00;;;;;;5053549;28;20411;-44
2022/11/19 00:06:04;;;;;;;4.63;3.50;;;0.70;32.10;;;;;;5053476;28;20053;-43
2022/11/19 00:08:30;;;;;;;7.63;3.95;;;0.70;1.00;;;;;;5054315;28;20040;-44
2022/11/19 00:11:11;;;;;;;8.13;3.90;;;1.00;81.20;;;;;;5054002;28;20526;-44
2022/11/19 00:13:39;;;;;;;5.40;3.43;;;0.70;1.00;;;;;;5052172;28;20049;-44
2022/11/19 00:16:07;;;;;;;5.07;3.50;;;0.50;99.90;;;;;;5069326;28;20386;-44
2022/11/19 00:18:33;;;;;;;4.80;2.93;;;0.50;1.00;;;;;;5053920;28;20041;-44
2022/11/19 00:21:12;;;;;;;6.80;3.40;;;0.50;1.00;;;;;;5054189;28;20103;-44
2022/11/19 00:23:39;;;;;;;5.10;3.23;;;0.50;99.90;;;;;;5035739;28;20056;-46
2022/11/19 00:26:04;;;;;;;4.97;3.13;;;0.40;1.00;;;;;;5053596;28;20049;-37
2022/11/19 00:28:30;;;;;;;4.17;3.17;;;0.30;99.90;;;;;;5053313;28;20139;-37
2022/11/19 00:31:00;;;;;;;4.97;3.10;;;0.30;99.90;;;;;;5053286;28;20056;-39
2022/11/19 00:33:28;;;;;;;5.87;3.30;;;0.20;1.00;;;;;;5053072;28;20434;-39
2022/11/19 00:35:58;;;;;;;5.13;3.57;;;0.10;99.90;;;;;;5068757;28;20127;-35
2022/11/19 00:38:23;;;;;;;4.47;2.97;;;0.10;1.00;;;;;;5051881;28;20045;-35
2022/11/19 00:40:49;;;;;;;3.90;3.33;;;0.00;1.00;;;;;;5035159;28;20048;-35
2022/11/19 00:44:00;;;;;;;4.73;3.30;;;0.00;99.90;;;;;;5051988;28;20199;-35
2022/11/19 00:46:01;;;;;;;5.37;3.27;;;-0.10;99.90;;;;;;5049158;28;20410;-36
2022/11/19 00:48:26;;;;;;;6.00;3.80;;;-0.10;1.00;;;;;;5053183;28;20045;-36
2022/11/19 00:50:52;;;;;;;7.53;3.57;;;-0.20;1.00;;;;;;5053360;28;20052;-36
2022/11/19 00:53:18;;;;;;;4.50;3.03;;;-0.20;1.00;;;;;;5052073;28;20540;-36
2022/11/19 00:55:43;;;;;;;4.13;3.03;;;-0.30;1.00;;;;;;5052048;28;20045;-36
2022/11/19 00:58:09;;;;;;;6.07;3.77;;;-0.30;99.90;;;;;;5068504;28;20132;-36
2022/11/19 01:00:35;;;;;;;6.37;3.80;;;-0.40;1.00;;;;;;5052064;28;20387;-36
2022/11/19 01:03:00;;;;;;;4.83;3.47;;;-0.40;68.80;;;;;;5052987;28;20394;-36
2022/11/19 01:05:26;;;;;;;5.43;3.80;;;-0.50;1.00;;;;;;5052930;28;20080;-36
2022/11/19 01:07:52;;;;;;;5.00;4.07;;;-0.50;1.00;;;;;;5052242;28;20049;-35
2022/11/19 01:10:18;;;;;;;6.00;3.90;;;-0.50;99.90;;;;;;5051803;28;20045;-36
2022/11/19 01:15:28;;;;;;;4.90;3.83;;;-0.60;1.00;;;;;;5056792;28;20171;-36
2022/11/19 01:17:54;;;;;;;6.23;4.30;;;-0.60;1.00;;;;;;5056326;28;20554;-36
2022/11/19 01:20:19;;;;;;;4.63;3.53;;;-0.70;1.00;;;;;;5038771;28;20049;-36
2022/11/19 01:22:45;;;;;;;6.10;4.07;;;-0.70;1.00;;;;;;5056345;28;20072;-36
2022/11/19 01:25:12;;;;;;;8.43;4.80;;;-0.60;1.00;;;;;;5054757;28;20140;-36
2022/11/19 01:27:38;;;;;;;5.40;3.67;;;-0.60;99.90;;;;;;5054994;28;20044;-36
2022/11/19 01:30:04;;;;;;;7.53;4.60;;;-0.70;99.90;;;;;;5057007;28;20045;-36
2022/11/19 01:32:30;;;;;;;6.50;4.33;;;-0.70;99.90;;;;;;5056944;28;20044;-36
2022/11/19 01:34:55;;;;;;;5.47;3.97;;;-0.70;1.00;;;;;;5056173;28;20492;-36
2022/11/19 01:37:21;;;;;;;8.50;5.37;;;-0.70;1.00;;;;;;5056046;28;20099;-37
2022/11/19 01:39:47;;;;;;;6.53;4.70;;;-0.70;99.90;;;;;;5055565;28;20053;-37
2022/11/19 01:42:48;;;;;;;7.40;4.53;;;-0.60;47.50;;;;;;5056304;28;20532;-37
2022/11/19 01:45:18;;;;;;;6.67;4.50;;;-0.60;1.00;;;;;;5055482;28;20084;-37
2022/11/19 01:47:44;;;;;;;7.47;4.30;;;-0.70;99.90;;;;;;5056518;28;20116;-38
2022/11/19 01:50:10;;;;;;;5.80;4.00;;;-0.70;99.90;;;;;;5055834;28;20095;-37
2022/11/19 01:52:38;;;;;;;6.53;4.80;;;-0.70;99.90;;;;;;5055799;28;20076;-36
2022/11/19 01:55:06;;;;;;;7.53;4.50;;;-0.70;1.00;;;;;;5055707;28;20102;-36
2022/11/19 01:57:32;;;;;;;7.60;4.23;;;-0.70;53.70;;;;;;5070778;28;20106;-35
2022/11/19 01:59:58;;;;;;;7.10;4.50;;;-0.70;99.90;;;;;;5055611;28;20080;-35
2022/11/19 02:02:24;;;;;;;6.07;4.17;;;-0.70;1.00;;;;;;5055198;28;20088;-35
2022/11/19 02:04:51;;;;;;;7.90;4.20;;;-0.70;1.00;;;;;;5055494;28;20049;-34
2022/11/19 02:07:23;;;;;;;7.03;5.17;;;-0.70;1.00;;;;;;5055450;28;20045;-34
2022/11/19 02:09:49;;;;;;;6.87;4.70;;;-0.80;1.00;;;;;;5055821;28;20053;-33
2022/11/19 02:12:18;;;;;;;6.73;4.80;;;-0.80;1.00;;;;;;5071551;28;20048;-33
2022/11/19 02:14:58;;;;;;;7.27;4.57;;;-0.80;1.00;;;;;;5055894;28;20418;-33
2022/11/19 02:17:46;;;;;;;7.33;5.10;;;-0.90;1.00;;;;;;5055233;28;20412;-32
2022/11/19 02:20:17;;;;;;;7.53;4.83;;;-0.90;7.50;;;;;;5055504;28;20055;-32
2022/11/19 02:22:52;;;;;;;6.93;4.43;;;-1.00;99.90;;;;;;5054357;28;20049;-32
2022/11/19 02:25:59;;;;;;;7.97;5.10;;;-1.00;99.90;;;;;;5053927;28;20087;-31
2022/11/19 02:28:31;;;;;;;6.47;4.23;;;-1.10;99.90;;;;;;5055396;28;20045;-41
2022/11/19 02:31:09;;;;;;;6.97;4.67;;;-1.10;99.90;;;;;;5055008;28;20059;-39
2022/11/19 02:33:39;;;;;;;8.13;5.00;;;-1.10;51.40;;;;;;5055859;28;20051;-39
2022/11/19 02:36:32;;;;;;;7.30;4.80;;;-1.20;83.80;;;;;;5054793;28;20479;-38
2022/11/19 02:39:32;;;;;;;8.47;5.50;;;-1.20;99.90;;;;;;5054855;28;20450;-38
2022/11/19 02:42:27;;;;;;;7.87;5.70;;;-1.20;99.90;;;;;;5054668;28;20495;-38
2022/11/19 02:45:11;;;;;;;7.80;5.50;;;-1.30;99.90;;;;;;5087179;28;20053;-34
2022/11/19 02:47:44;;;;;;;8.60;5.70;;;-1.40;99.90;;;;;;5055288;28;20045;-35
2022/11/19 02:50:39;;;;;;;7.72;4.72;;;-1.40;99.90;;;;;;5053702;28;20377;-36
2022/11/19 02:53:05;;;;;;;8.93;5.80;;;-1.50;99.90;;;;;;5054439;28;20415;-34
2022/11/19 02:55:31;;;;;;;8.37;5.60;;;-1.60;99.90;;;;;;5053596;28;20047;-34
2022/11/19 02:58:07;;;;;;;8.47;5.03;;;-1.60;99.90;;;;;;5054124;28;20048;-33
2022/11/19 03:06:22;;;;;;;10.93;5.53;;;-1.70;99.90;;;;;;5055019;28;20136;-34
2022/11/19 03:08:47;;;;;;;10.13;5.70;;;-1.80;1.00;;;;;;5054332;28;20049;-33
2022/11/19 03:11:25;;;;;;;7.43;4.90;;;-1.80;99.90;;;;;;5053364;28;20044;-32
2022/11/19 03:16:59;;;;;;;8.15;5.50;;;-1.70;1.00;;;;;;5054177;28;20060;-32
2022/11/19 03:19:57;;;;;;;8.40;5.20;;;-1.90;1.00;;;;;;5053797;28;20437;-32
2022/11/19 03:22:28;;;;;;;7.50;5.13;;;-1.90;1.00;;;;;;5053989;28;20475;-31
2022/11/19 03:25:06;;;;;;;7.47;5.07;;;-2.00;38.60;;;;;;5053603;28;20144;-30
2022/11/19 03:27:35;;;;;;;7.80;4.93;;;-1.90;99.90;;;;;;5053920;28;20056;-30
2022/11/19 03:30:03;;;;;;;7.07;5.20;;;-1.90;99.90;;;;;;5053958;28;20049;-29
2022/11/19 03:32:35;;;;;;;11.53;5.40;;;-1.90;99.90;;;;;;5053907;28;20053;-29
2022/11/19 03:35:07;;;;;;;7.23;5.17;;;-2.00;99.90;;;;;;5053458;28;20060;-29
2022/11/19 03:37:36;;;;;;;8.88;5.13;;;-2.00;1.00;;;;;;5054146;28;20498;-29
2022/11/19 03:40:04;;;;;;;7.37;4.73;;;-2.00;1.00;;;;;;5053744;28;20057;-29
2022/11/19 03:42:31;;;;;;;6.57;4.83;;;-2.00;1.00;;;;;;5053425;28;20059;-30
2022/11/19 03:45:11;;;;;;;9.07;5.20;;;-2.10;1.00;;;;;;5053681;28;20473;-28
2022/11/19 03:47:40;;;;;;;7.87;5.43;;;-2.10;99.90;;;;;;5054049;28;20376;-29
2022/11/19 03:50:22;;;;;;;8.80;5.00;;;-2.10;1.00;;;;;;5054215;28;20124;-29
2022/11/19 03:52:48;;;;;;;9.53;6.13;;;-2.10;1.00;;;;;;5052749;28;20048;-28
2022/11/19 03:55:15;;;;;;;8.07;5.80;;;-2.10;1.00;;;;;;5052478;28;20045;-29
2022/11/19 03:57:42;;;;;;;8.60;5.47;;;-2.10;1.00;;;;;;5053474;28;20055;-28
2022/11/19 04:00:08;;;;;;;9.40;5.33;;;-2.20;1.00;;;;;;5053267;28;20395;-28
2022/11/19 04:02:35;;;;;;;8.70;5.33;;;-2.10;1.00;;;;;;5052555;28;20045;-28
2022/11/19 04:05:00;;;;;;;9.57;6.07;;;-2.20;1.00;;;;;;5053501;28;20088;-28
2022/11/19 04:07:26;;;;;;;7.83;5.93;;;-2.20;1.00;;;;;;5052538;28;20091;-28
2022/11/19 04:09:52;;;;;;;12.40;6.40;;;-2.20;1.00;;;;;;5054018;28;20080;-28
2022/11/19 04:12:20;;;;;;;8.27;6.00;;;-2.30;1.00;;;;;;5052645;28;20091;-28
2022/11/19 04:14:46;;;;;;;7.87;5.23;;;-2.30;1.00;;;;;;5053437;28;20052;-28
2022/11/19 04:17:13;;;;;;;10.03;6.30;;;-2.30;1.00;;;;;;5053020;28;20510;-28
2022/11/19 04:19:38;;;;;;;8.07;5.77;;;-1.90;1.00;;;;;;5068938;28;20077;-28
2022/11/19 04:22:04;;;;;;;9.30;6.00;;;-2.40;1.00;;;;;;5053237;28;20087;-27
2022/11/19 04:24:30;;;;;;;7.33;4.83;;;-2.40;1.00;;;;;;5052386;28;20654;-28
2022/11/19 04:26:56;;;;;;;10.27;5.90;;;-2.40;1.00;;;;;;5052220;28;20175;-29
2022/11/19 04:29:22;;;;;;;9.93;6.10;;;-2.40;1.00;;;;;;5053328;28;20089;-27
2022/11/19 04:31:48;;;;;;;8.63;5.63;;;-2.40;1.00;;;;;;5053260;28;20109;-28
2022/11/19 04:34:13;;;;;;;9.33;5.57;;;-2.40;1.00;;;;;;5053266;28;20542;-27
2022/11/19 04:36:41;;;;;;;8.43;5.90;;;-2.40;1.00;;;;;;5053132;28;20056;-28
2022/11/19 04:39:07;;;;;;;7.13;5.10;;;-2.40;1.00;;;;;;5069313;28;20048;-27
2022/11/19 04:41:34;;;;;;;9.33;5.97;;;-2.40;1.00;;;;;;5052083;28;20063;-28
2022/11/19 04:43:59;;;;;;;8.90;5.83;;;-2.40;1.00;;;;;;5053129;28;20040;-27
2022/11/19 04:46:25;;;;;;;9.20;5.97;;;-2.50;1.00;;;;;;5053384;28;20095;-28
2022/11/19 04:48:51;;;;;;;9.83;6.60;;;-2.40;1.00;;;;;;5056993;28;20071;-27
2022/11/19 04:51:17;;;;;;;8.70;6.03;;;-2.40;1.00;;;;;;5056985;28;20502;-28
2022/11/19 04:53:43;;;;;;;9.23;5.80;;;-2.50;1.00;;;;;;5057134;28;20045;-27
2022/11/19 04:56:09;;;;;;;8.63;5.70;;;-2.50;1.00;;;;;;5056893;28;20479;-28
2022/11/19 04:58:35;;;;;;;9.87;6.07;;;-2.50;1.00;;;;;;5055516;28;20053;-28
2022/11/19 05:01:01;;;;;;;8.67;5.20;;;-2.50;1.00;;;;;;5056731;28;20094;-28
2022/11/19 05:03:27;;;;;;;8.10;5.57;;;-2.50;18.50;;;;;;5056440;28;20057;-27
2022/11/19 05:05:53;;;;;;;8.50;5.30;;;-2.50;1.00;;;;;;5055397;28;20045;-27
2022/11/19 05:08:19;;;;;;;7.70;5.17;;;-2.50;1.00;;;;;;5056572;28;20041;-28
2022/11/19 05:10:44;;;;;;;8.17;5.40;;;-2.50;99.90;;;;;;5072084;28;20067;-28
2022/11/19 05:13:10;;;;;;;9.63;5.93;;;-2.50;1.00;;;;;;5056986;28;20055;-27
2022/11/19 05:15:36;;;;;;;8.10;5.80;;;-2.50;99.90;;;;;;5071999;28;20128;-27
2022/11/19 05:18:01;;;;;;;9.53;5.67;;;-2.60;1.00;;;;;;5056644;28;20048;-27
2022/11/19 05:20:27;;;;;;;8.93;5.87;;;-2.60;99.90;;;;;;5056394;28;20128;-27
2022/11/19 05:22:53;;;;;;;8.47;5.70;;;-2.60;1.00;;;;;;5055202;28;20045;-27
2022/11/19 05:25:19;;;;;;;8.63;5.67;;;-2.60;1.00;;;;;;5055101;28;20394;-28
2022/11/19 05:27:45;;;;;;;10.57;5.60;;;-2.60;1.00;;;;;;5056597;28;20044;-27
2022/11/19 05:30:11;;;;;;;9.37;5.43;;;-2.60;1.00;;;;;;5055274;28;20049;-27
2022/11/19 05:32:37;;;;;;;9.13;5.33;;;-2.70;1.00;;;;;;5038595;28;20056;-27
2022/11/19 05:35:04;;;;;;;9.40;6.00;;;-2.70;1.00;;;;;;5039407;28;20102;-27
2022/11/19 05:37:30;;;;;;;9.43;5.40;;;-2.70;99.90;;;;;;5054944;28;20517;-27
2022/11/19 05:39:56;;;;;;;8.53;5.77;;;-2.70;1.00;;;;;;5038367;28;20059;-27
2022/11/19 05:42:22;;;;;;;8.43;5.57;;;-2.70;1.00;;;;;;5056062;28;20135;-27
2022/11/19 05:44:48;;;;;;;9.63;6.03;;;-2.60;99.90;;;;;;5056779;28;20123;-27
2022/11/19 05:47:16;;;;;;;8.83;5.40;;;-2.60;1.00;;;;;;5055890;28;20041;-27
2022/11/19 05:49:42;;;;;;;8.10;5.40;;;-2.60;1.00;;;;;;5055840;28;20098;-27
2022/11/19 05:52:09;;;;;;;8.97;6.07;;;-2.60;1.00;;;;;;5054524;28;20041;-27
2022/11/19 05:54:34;;;;;;;8.23;6.00;;;-2.60;1.00;;;;;;5055749;28;20088;-27
2022/11/19 05:57:00;;;;;;;7.97;5.50;;;-2.60;1.00;;;;;;5054501;28;20084;-28
2022/11/19 05:59:25;;;;;;;10.70;5.67;;;-2.60;99.90;;;;;;5053639;28;20376;-28
2022/11/19 06:01:51;;;;;;;8.30;5.77;;;-2.30;99.90;;;;;;5054641;28;20045;-27
2022/11/19 06:04:17;;;;;;;11.00;6.10;;;-2.70;99.90;;;;;;5071627;28;20106;-27
2022/11/19 06:06:43;;;;;;;9.77;5.80;;;-2.70;99.90;;;;;;5054588;28;20129;-28
2022/11/19 06:09:08;;;;;;;9.50;5.50;;;-2.80;1.00;;;;;;5055498;28;20084;-27
2022/11/19 06:11:46;;;;;;;7.17;5.63;;;-2.80;1.00;;;;;;5054279;28;20052;-27
2022/11/19 06:14:22;;;;;;;9.17;5.63;;;-2.80;1.00;;;;;;5055242;28;20049;-27
2022/11/19 06:16:59;;;;;;;8.57;5.70;;;-2.80;99.90;;;;;;5054611;28;20049;-27
2022/11/19 06:19:25;;;;;;;9.37;5.63;;;-2.80;1.00;;;;;;5055929;28;20497;-28
2022/11/19 06:21:51;;;;;;;9.70;5.90;;;-2.90;99.90;;;;;;5055265;28;20052;-27
2022/11/19 06:24:17;;;;;;;8.93;5.87;;;-2.80;1.00;;;;;;5055790;28;20048;-27
2022/11/19 06:26:43;;;;;;;9.03;5.73;;;-2.90;1.00;;;;;;5054172;28;20051;-27
2022/11/19 06:29:12;;;;;;;8.53;5.63;;;-2.90;1.00;;;;;;5037567;28;20080;-27
2022/11/19 06:31:37;;;;;;;10.43;6.33;;;-2.80;1.00;;;;;;5055050;28;20040;-27
2022/11/19 06:34:03;;;;;;;8.60;6.03;;;-2.80;1.00;;;;;;5054828;28;20068;-27
2022/11/19 06:36:29;;;;;;;9.47;6.27;;;-2.90;6.20;;;;;;5070345;28;20124;-27
2022/11/19 06:38:55;;;;;;;8.07;5.40;;;-2.80;1.00;;;;;;5054609;28;20487;-27
2022/11/19 06:41:20;;;;;;;8.97;5.87;;;-2.80;1.00;;;;;;5053425;28;20053;-28
2022/11/19 06:43:46;;;;;;;7.73;5.47;;;-2.90;1.00;;;;;;5054800;28;20051;-27
2022/11/19 06:46:13;;;;;;;11.23;6.67;;;-2.90;1.00;;;;;;5054799;28;20048;-27
2022/11/19 06:48:38;;;;;;;11.67;5.90;;;-2.90;1.00;;;;;;5054986;28;20121;-27
2022/11/19 06:51:05;;;;;;;8.83;6.17;;;-2.90;1.00;;;;;;5054684;28;20506;-27
2022/11/19 06:53:31;;;;;;;9.47;5.80;;;-3.00;1.00;;;;;;5054324;28;20499;-27
2022/11/19 06:56:02;;;;;;;9.60;5.57;;;-3.00;1.00;;;;;;5054542;28;20491;-27
2022/11/19 06:58:28;;;;;;;9.03;5.70;;;-3.00;1.00;;;;;;5054185;28;20503;-27
2022/11/19 07:00:54;;;;;;;8.10;5.53;;;-3.00;1.00;;;;;;5053204;28;20052;-28
2022/11/19 07:03:20;;;;;;;9.67;5.77;;;-3.00;1.00;;;;;;5054387;28;20041;-27
2022/11/19 07:06:00;;;;;;;10.83;6.10;;;-3.00;1.00;;;;;;5054349;28;20052;-27
2022/11/19 07:08:26;;;;;;;8.83;6.10;;;-3.00;1.00;;;;;;5054366;28;20049;-27
2022/11/19 07:10:52;;;;;;;10.10;5.93;;;-3.00;1.00;;;;;;5053621;28;20040;-27
2022/11/19 07:13:18;;;;;;;10.37;6.60;;;-3.00;1.00;;;;;;5052915;28;20048;-27
2022/11/19 07:15:44;;;;;;;12.13;6.60;;;-3.00;1.00;;;;;;5053870;28;20072;-27
2022/11/19 07:18:10;;;;;;;9.27;6.17;;;-3.10;26.60;;;;;;5054152;28;20041;-28
2022/11/19 07:20:35;;;;;;;9.70;6.03;;;-3.10;72.80;;;;;;5052961;28;20137;-27
2022/11/19 07:23:01;;;;;;;8.77;6.07;;;-3.10;1.00;;;;;;5053094;28;20048;-27
2022/11/19 07:25:27;;;;;;;11.97;6.70;;;-3.10;99.90;;;;;;5054016;28;20464;-28
2022/11/19 07:27:52;;;;;;;10.00;6.10;;;-3.10;24.10;;;;;;5053970;28;20045;-27
2022/11/19 07:30:18;;;;;;;13.40;6.70;;;-3.00;1.00;;;;;;5054682;28;20044;-27
2022/11/19 07:32:44;;;;;;;10.13;6.10;;;-3.00;1.00;;;;;;5053977;28;20153;-27
2022/11/19 07:35:10;;;;;;;11.20;7.20;;;-3.00;8.50;;;;;;5053374;28;20072;-27
2022/11/19 07:37:37;;;;;;;10.87;6.03;;;-3.00;42.60;;;;;;5053811;28;20037;-27
2022/11/19 07:40:05;;;;;;;10.83;6.87;;;-3.00;1.00;;;;;;5052380;28;20076;-28
2022/11/19 07:42:49;;;;;;;9.67;6.30;;;-2.90;19.20;;;;;;5053796;28;20084;-27
2022/11/19 07:45:15;;;;;;;8.30;5.57;;;-2.80;20.10;;;;;;5067025;28;20048;-27
2022/11/19 07:47:41;;;;;;;10.87;5.90;;;-2.80;1.00;;;;;;5053720;28;20045;-27
2022/11/19 07:50:07;;;;;;;9.10;6.13;;;-2.80;1.00;;;;;;5054255;28;20178;-27
2022/11/19 07:52:33;;;;;;;8.90;5.13;;;-2.80;62.10;;;;;;5053626;28;20045;-27
2022/11/19 07:54:59;;;;;;;8.80;6.13;;;-2.70;1.00;;;;;;5053652;28;20549;-27
2022/11/19 07:57:24;;;;;;;9.17;6.03;;;-2.70;1.00;;;;;;5053565;28;20083;-27
2022/11/19 07:59:50;;;;;;;8.00;5.87;;;-2.60;27.30;;;;;;5053508;28;20048;-28
2022/11/19 08:02:15;;;;;;;9.83;6.70;;;-2.60;1.00;;;;;;5053582;28;20102;-27
2022/11/19 08:04:41;;;;;;;8.73;5.70;;;-2.60;1.00;;;;;;5053506;28;20052;-27
2022/11/19 08:07:07;;;;;;;9.57;5.80;;;-2.50;1.00;;;;;;5054293;28;20053;-28
2022/11/19 08:09:33;;;;;;;10.97;6.30;;;-2.50;1.00;;;;;;5053447;28;20041;-27
2022/11/19 08:11:59;;;;;;;8.27;5.77;;;-2.40;99.90;;;;;;5053458;28;20044;-27
2022/11/19 08:14:25;;;;;;;7.73;5.53;;;-2.40;1.00;;;;;;5053905;28;20064;-27
2022/11/19 08:19:35;;;;;;;7.97;5.20;;;-2.30;99.90;;;;;;5052781;28;20064;-27
2022/11/19 08:22:01;;;;;;;10.73;5.83;;;-2.20;99.90;;;;;;5056211;28;20052;-27
2022/11/19 08:24:26;;;;;;;7.70;5.30;;;-2.20;99.90;;;;;;5057419;28;20064;-27
2022/11/19 08:26:52;;;;;;;8.23;5.60;;;-2.10;99.90;;;;;;5039542;28;20128;-28
2022/11/19 08:29:20;;;;;;;9.47;5.80;;;-2.10;99.90;;;;;;5057357;28;20518;-28
2022/11/19 08:31:46;;;;;;;9.10;6.00;;;-2.00;99.90;;;;;;5057270;28;20136;-27
2022/11/19 08:34:13;;;;;;;12.73;6.83;;;-2.00;99.90;;;;;;5056921;28;20511;-27
2022/11/19 08:36:39;;;;;;;12.63;6.10;;;-1.90;99.90;;;;;;5057097;28;20053;-27
2022/11/19 08:39:05;;;;;;;16.40;7.03;;;-1.90;1.00;;;;;;5057128;28;20048;-28
2022/11/19 08:44:16;;;;;;;9.77;6.20;;;-1.50;99.90;;;;;;5056121;28;20076;-27
2022/11/19 08:46:43;;;;;;;10.80;6.53;;;-1.70;1.00;;;;;;5057533;28;20459;-28
2022/11/19 08:49:10;;;;;;;10.03;6.47;;;-1.60;1.00;;;;;;5056527;28;20045;-28
2022/11/19 08:51:36;;;;;;;8.90;6.37;;;-1.60;99.90;;;;;;5056244;28;20048;-28
2022/11/19 08:54:03;;;;;;;9.03;5.80;;;-1.50;1.00;;;;;;5055927;28;20048;-27
2022/11/19 08:56:29;;;;;;;11.60;6.30;;;-1.40;99.90;;;;;;5056828;28;20045;-28
2022/11/19 08:58:55;;;;;;;7.60;5.30;;;-1.40;99.90;;;;;;5056246;28;20049;-28
2022/11/19 09:01:21;;;;;;;6.73;5.07;;;-1.20;99.90;;;;;;5056768;28;20075;-27
2022/11/19 09:03:47;;;;;;;8.70;6.23;;;-1.20;99.90;;;;;;5055571;28;20051;-28
2022/11/19 09:06:13;;;;;;;8.77;5.83;;;-1.20;99.90;;;;;;5056534;28;20040;-28
2022/11/19 09:08:39;;;;;;;7.53;5.60;;;-1.10;1.00;;;;;;5056677;28;20048;-28
2022/11/19 09:11:11;;;;;;;8.87;6.33;;;-0.90;1.00;;;;;;5056611;28;20048;-28
2022/11/19 09:13:37;;;;;;;10.03;5.80;;;-1.00;1.00;;;;;;5054977;28;20048;-28
2022/11/19 09:16:03;;;;;;;7.10;4.93;;;-1.00;86.40;;;;;;5056461;28;20056;-28
2022/11/19 09:18:29;;;;;;;9.07;6.13;;;-0.90;11.30;;;;;;5055509;28;20049;-28
2022/11/19 09:20:56;;;;;;;6.80;5.20;;;-0.90;99.90;;;;;;5056422;28;20045;-28
2022/11/19 09:23:23;;;;;;;8.47;6.00;;;-0.80;1.00;;;;;;5056898;28;20053;-28
2022/11/19 09:26:06;;;;;;;8.17;6.13;;;-0.80;99.90;;;;;;5056247;28;20076;-29
2022/11/19 09:28:32;;;;;;;11.23;6.90;;;-0.80;1.00;;;;;;5056272;28;20483;-28
2022/11/19 09:30:59;;;;;;;11.43;6.33;;;-0.70;99.90;;;;;;5055725;28;20471;-28
2022/11/19 09:33:27;;;;;;;10.00;6.07;;;-0.60;1.00;;;;;;5053633;28;20507;-28
2022/11/19 09:35:53;;;;;;;7.87;5.60;;;-0.60;43.50;;;;;;5055784;28;20570;-29
2022/11/19 09:38:19;;;;;;;7.23;5.50;;;-0.50;99.90;;;;;;5055991;28;20123;-29
2022/11/19 09:40:52;;;;;;;7.97;5.53;;;-0.50;99.90;;;;;;5056072;28;20063;-30
2022/11/19 09:43:30;;;;;;;;;;;-0.40;1.00;;;;;;5056315;28;20056;-29
2022/11/19 09:46:21;;;;;;;7.63;5.00;;;-0.40;1.00;;;;;;5054717;28;19921;-29
2022/11/19 09:48:49;;;;;;;9.90;6.07;;;-0.30;99.90;;;;;;5056439;28;20084;-29
2022/11/19 09:51:20;;;;;;;8.37;5.90;;;-0.20;44.30;;;;;;5056546;28;20037;-29
2022/11/19 09:53:51;;;;;;;7.53;5.17;;;-0.10;99.90;;;;;;5038717;28;20388;-29
2022/11/19 09:56:33;;;;;;;7.37;5.20;;;-0.10;99.90;;;;;;5038159;28;20092;-30
2022/11/19 09:59:08;;;;;;;8.80;5.57;;;0.00;99.90;;;;;;5069708;28;20041;-30
2022/11/19 10:01:35;;;;;;;6.90;5.03;;;0.10;99.90;;;;;;5054807;28;20045;-31
2022/11/19 10:04:02;;;;;;;7.53;5.10;;;0.20;1.00;;;;;;5054626;28;20057;-31
2022/11/19 10:07:01;;;;;;;10.50;5.73;;;0.30;99.90;;;;;;5055540;28;20052;-30
2022/11/19 10:10:05;;;;;;;8.90;6.13;;;0.70;99.90;;;;;;5056337;28;20057;-30
2022/11/19 10:12:49;;;;;;;8.48;4.13;;;0.40;99.90;;;;;;5054684;28;20053;-30
2022/11/19 10:15:28;;;;;;;8.57;4.83;;;0.50;28.40;;;;;;5056010;28;20395;-31
2022/11/19 10:17:56;;;;;;;6.20;4.53;;;0.60;99.90;;;;;;5055684;28;20037;-32
2022/11/19 10:20:52;;;;;;;8.47;5.57;;;0.60;1.00;;;;;;5055287;28;20049;-31
2022/11/19 10:23:37;;;;;;;7.00;4.40;;;0.70;43.00;;;;;;5054083;28;20049;-32
2022/11/19 10:26:09;;;;;;;6.83;4.23;;;0.80;99.90;;;;;;5055254;28;20103;-31
2022/11/19 10:28:38;;;;;;;6.80;4.90;;;0.80;99.90;;;;;;5054298;28;20357;-31
2022/11/19 10:31:28;;;;;;;6.77;4.70;;;0.90;99.90;;;;;;5055092;28;20048;-31
2022/11/19 10:34:10;;;;;;;6.67;4.07;;;1.00;1.00;;;;;;5055155;28;20399;-32
2022/11/19 10:36:42;;;;;;;7.47;4.57;;;1.00;1.00;;;;;;5055018;28;20132;-32
2022/11/19 10:39:19;;;;;;;5.43;4.37;;;1.10;1.00;;;;;;5055785;28;20156;-33
2022/11/19 10:41:53;;;;;;;5.80;3.70;;;1.10;99.90;;;;;;5055057;28;20074;-32
2022/11/19 10:44:38;;;;;;;6.03;4.03;;;1.20;99.90;;;;;;5054798;28;20060;-33
2022/11/19 10:47:32;;;;;;;6.47;4.00;;;1.20;1.00;;;;;;5054812;28;20045;-32
2022/11/19 10:49:57;;;;;;;7.03;4.68;;;1.30;1.00;;;;;;5054753;28;20407;-32
2022/11/19 10:52:34;;;;;;;5.17;3.93;;;1.60;99.90;;;;;;5054083;28;20045;-33
2022/11/19 10:55:17;;;;;;;6.50;4.33;;;1.40;99.90;;;;;;5054719;28;20041;-32
2022/11/19 10:57:44;;;;;;;8.65;5.68;;;1.50;82.10;;;;;;5054894;28;20045;-33
2022/11/19 11:00:10;;;;;;;7.07;4.07;;;1.50;99.90;;;;;;5069840;28;20127;-32
2022/11/19 11:02:47;;;;;;;6.77;3.97;;;1.60;99.90;;;;;;5053812;28;20084;-32
2022/11/19 11:05:15;;;;;;;5.07;3.60;;;1.60;99.90;;;;;;5054571;28;20067;-33
2022/11/19 11:07:44;;;;;;;5.40;4.33;;;1.60;99.90;;;;;;5053244;28;20033;-33
2022/11/19 11:10:25;;;;;;;7.10;3.90;;;1.70;1.00;;;;;;5054887;28;20085;-34
2022/11/19 11:15:44;;;;;;;6.13;3.95;;;1.80;99.90;;;;;;5068123;28;20061;-33
2022/11/19 11:18:11;;;;;;;7.37;4.00;;;1.80;99.90;;;;;;5054167;28;20040;-33
2022/11/19 11:20:43;;;;;;;6.40;4.20;;;1.90;99.90;;;;;;5054953;28;20088;-33
2022/11/19 11:23:15;;;;;;;6.97;3.83;;;2.00;99.90;;;;;;5054762;28;20045;-32
2022/11/19 11:25:57;;;;;;;6.50;4.47;;;2.00;1.00;;;;;;5054382;28;20388;-33
2022/11/19 11:28:24;;;;;;;6.73;4.30;;;2.10;99.90;;;;;;5054623;28;20041;-33
2022/11/19 11:30:56;;;;;;;8.98;5.30;;;2.30;1.00;;;;;;5052706;28;20067;-33
2022/11/19 11:33:32;;;;;;;4.93;3.83;;;2.30;99.90;;;;;;5053965;28;20049;-33
2022/11/19 11:36:13;;;;;;;6.73;3.97;;;2.40;1.00;;;;;;5052658;28;20388;-33
2022/11/19 11:38:44;;;;;;;6.60;4.10;;;2.40;1.00;;;;;;5054694;28;20041;-34
2022/11/19 11:41:19;;;;;;;5.30;3.60;;;2.40;99.90;;;;;;5052616;28;20069;-34
2022/11/19 11:44:00;;;;;;;7.38;4.10;;;2.40;1.00;;;;;;5052975;28;20489;-34
2022/11/19 11:47:03;;;;;;;6.18;3.53;;;2.40;83.30;;;;;;5053411;28;20114;-34
2022/11/19 11:49:38;;;;;;;9.77;5.10;;;2.50;99.90;;;;;;5052460;28;20057;-34
2022/11/19 11:52:10;;;;;;;6.85;3.33;;;2.60;99.90;;;;;;5053952;28;20514;-34
2022/11/19 11:54:55;;;;;;;5.45;3.40;;;2.60;1.00;;;;;;5053975;28;20106;-37
2022/11/19 11:57:55;;;;;;;5.00;3.47;;;2.60;42.80;;;;;;5052859;28;20045;-38
2022/11/19 12:00:34;;;;;;;6.33;3.60;;;2.60;99.90;;;;;;5053295;28;20525;-35
2022/11/19 12:03:07;;;;;;;6.20;4.10;;;2.70;53.10;;;;;;5052641;28;20526;-36
2022/11/19 12:05:44;;;;;;;7.10;4.38;;;2.90;1.00;;;;;;5052594;28;20052;-39
2022/11/19 12:08:47;;;;;;;11.98;5.70;;;2.80;99.90;;;;;;5054104;28;20115;-38
2022/11/19 12:11:56;;;;;;;11.23;4.07;;;2.80;99.90;;;;;;5052532;28;20399;-42
2022/11/19 12:14:28;;;;;;;5.50;3.70;;;2.90;99.90;;;;;;5035430;28;20502;-43
2022/11/19 12:16:58;;;;;;;7.22;4.10;;;3.50;1.00;;;;;;5053982;28;20419;-43
2022/11/19 12:19:43;;;;;;;5.07;3.50;;;4.30;99.90;;;;;;5053691;28;20057;-44
2022/11/19 12:22:23;;;;;;;4.70;3.30;;;4.80;99.90;;;;;;5053468;28;20052;-44
2022/11/19 12:25:07;;;;;;;4.63;2.97;;;5.50;99.90;;;;;;5053005;28;20494;-45
2022/11/19 12:27:47;;;;;;;5.22;3.50;;;5.90;1.00;;;;;;5054216;28;20061;-45
2022/11/19 12:30:28;;;;;;;5.82;3.78;;;6.20;99.90;;;;;;5053327;28;20392;-45
2022/11/19 12:32:56;;;;;;;5.78;3.67;;;6.50;99.90;;;;;;5053383;28;20049;-45
2022/11/19 12:35:34;;;;;;;4.50;3.20;;;6.60;99.90;;;;;;5053265;28;20049;-45
2022/11/19 12:38:47;;;;;;;4.22;2.78;;;6.80;1.00;;;;;;5053506;28;20048;-46
2022/11/19 12:41:25;;;;;;;2.88;2.10;;;6.80;1.00;;;;;;5052323;28;20070;-45
2022/11/19 12:43:53;;;;;;;4.38;2.97;;;6.90;1.00;;;;;;5053148;28;20107;-46
2022/11/19 12:46:52;;;;;;;3.30;2.83;;;7.10;99.90;;;;;;5053150;28;20055;-46
2022/11/19 12:49:24;;;;;;;3.58;2.55;;;7.30;99.90;;;;;;5053373;28;20060;-46
2022/11/19 12:52:38;;;;;;;4.28;3.17;;;7.40;91.00;;;;;;5052975;28;20154;-46
2022/11/19 12:55:37;;;;;;;3.55;2.35;;;7.50;1.00;;;;;;5044005;28;20055;-46
2022/11/19 12:58:27;;;;;;;4.18;2.75;;;7.60;99.90;;;;;;5052988;28;20041;-46
2022/11/19 13:01:00;;;;;;;3.60;2.90;;;7.50;1.00;;;;;;5053103;28;20060;-46
2022/11/19 13:03:46;;;;;;;3.63;2.83;;;7.30;1.00;;;;;;5053081;28;20095;-45
2022/11/19 13:06:36;;;;;;;4.22;3.10;;;7.10;99.90;;;;;;5053056;28;20049;-45
2022/11/19 13:09:07;;;;;;;3.88;2.78;;;7.10;99.90;;;;;;5057485;28;20106;-45
2022/11/19 13:11:44;;;;;;;5.55;3.10;;;6.80;99.90;;;;;;5057238;28;20448;-45
2022/11/19 13:14:31;;;;;;;4.13;3.08;;;6.80;99.90;;;;;;5038976;28;20041;-45
2022/11/19 13:16:59;;;;;;;3.47;2.70;;;6.80;99.90;;;;;;5056462;28;20048;-45
2022/11/19 13:19:29;;;;;;;5.63;3.13;;;6.70;1.00;;;;;;5056503;28;20051;-44
2022/11/19 13:22:12;;;;;;;4.22;2.80;;;6.80;1.00;;;;;;5057009;28;20460;-44
2022/11/19 13:24:43;;;;;;;4.70;3.35;;;6.80;1.00;;;;;;5056394;28;20507;-44
2022/11/19 13:27:14;;;;;;;5.35;3.95;;;6.70;1.00;;;;;;5056278;28;20124;-44
2022/11/19 13:30:13;;;;;;;3.35;2.78;;;6.40;99.90;;;;;;5056242;28;20045;-44
2022/11/19 13:33:16;;;;;;;4.63;3.03;;;6.20;1.00;;;;;;5055916;28;20410;-43
2022/11/19 13:36:16;;;;;;;3.97;3.03;;;6.20;99.90;;;;;;5056215;28;20099;-44
2022/11/19 13:38:47;;;;;;;4.10;3.05;;;6.40;99.90;;;;;;5055296;28;20088;-44